sensor_id;sensor_type;location;lat;lon;timestamp;temperature;humidity
34873;DHT22;21084;51.098;14.506;2023-06-14T00:00:38;8.60;92.70
34873;DHT22;21084;51.098;14.506;2023-06-14T00:03:08;8.50;92.80
34873;DHT22;21084;51.098;14.506;2023-06-14T00:05:37;8.50;92.70
34873;DHT22;21084;51.098;14.506;2023-06-14T00:08:10;8.50;92.70
34873;DHT22;21084;51.098;14.506;2023-06-14T00:10:39;8.50;92.80
34873;DHT22;21084;51.098;14.506;2023-06-14T00:13:11;8.50;92.80
34873;DHT22;21084;51.098;14.506;2023-06-14T00:15:39;8.40;92.80
34873;DHT22;21084;51.098;14.506;2023-06-14T00:18:07;8.40;93.10
34873;DHT22;21084;51.098;14.506;2023-06-14T00:20:39;8.30;93.40
34873;DHT22;21084;51.098;14.506;2023-06-14T00:23:09;8.30;93.40
34873;DHT22;21084;51.098;14.506;2023-06-14T00:25:37;8.20;93.40
34873;DHT22;21084;51.098;14.506;2023-06-14T00:28:06;8.20;93.50
34873;DHT22;21084;51.098;14.506;2023-06-14T00:30:35;8.20;93.50
34873;DHT22;21084;51.098;14.506;2023-06-14T00:33:04;8.10;93.50
34873;DHT22;21084;51.098;14.506;2023-06-14T00:35:33;8.20;93.70
34873;DHT22;21084;51.098;14.506;2023-06-14T00:38:02;8.10;93.60
34873;DHT22;21084;51.098;14.506;2023-06-14T00:40:30;8.20;94.10
34873;DHT22;21084;51.098;14.506;2023-06-14T00:42:59;8.20;93.80
34873;DHT22;21084;51.098;14.506;2023-06-14T00:45:28;8.20;94.00
34873;DHT22;21084;51.098;14.506;2023-06-14T00:48:00;8.10;93.70
34873;DHT22;21084;51.098;14.506;2023-06-14T00:50:30;8.10;94.00
34873;DHT22;21084;51.098;14.506;2023-06-14T00:53:00;8.00;93.90
34873;DHT22;21084;51.098;14.506;2023-06-14T00:55:29;8.00;94.00
34873;DHT22;21084;51.098;14.506;2023-06-14T00:58:00;8.00;94.00
34873;DHT22;21084;51.098;14.506;2023-06-14T01:00:29;8.00;93.90
34873;DHT22;21084;51.098;14.506;2023-06-14T01:02:59;8.00;93.60
34873;DHT22;21084;51.098;14.506;2023-06-14T01:05:29;7.90;93.40
34873;DHT22;21084;51.098;14.506;2023-06-14T01:08:06;8.00;93.20
34873;DHT22;21084;51.098;14.506;2023-06-14T01:10:44;7.90;93.10
34873;DHT22;21084;51.098;14.506;2023-06-14T01:13:20;7.90;93.00
34873;DHT22;21084;51.098;14.506;2023-06-14T01:15:50;7.90;93.00
34873;DHT22;21084;51.098;14.506;2023-06-14T01:18:20;7.90;93.10
34873;DHT22;21084;51.098;14.506;2023-06-14T01:20:51;8.00;93.10
34873;DHT22;21084;51.098;14.506;2023-06-14T01:23:23;8.00;93.20
34873;DHT22;21084;51.098;14.506;2023-06-14T01:25:52;7.90;93.00
34873;DHT22;21084;51.098;14.506;2023-06-14T01:28:22;7.90;92.90
34873;DHT22;21084;51.098;14.506;2023-06-14T01:30:52;7.90;92.90
34873;DHT22;21084;51.098;14.506;2023-06-14T01:33:23;7.90;92.90
34873;DHT22;21084;51.098;14.506;2023-06-14T01:35:53;7.90;92.90
34873;DHT22;21084;51.098;14.506;2023-06-14T01:38:24;7.90;92.90
34873;DHT22;21084;51.098;14.506;2023-06-14T01:40:55;7.90;92.90
34873;DHT22;21084;51.098;14.506;2023-06-14T01:43:25;7.90;92.90
34873;DHT22;21084;51.098;14.506;2023-06-14T01:45:54;7.80;92.80
34873;DHT22;21084;51.098;14.506;2023-06-14T01:48:23;7.80;92.70
34873;DHT22;21084;51.098;14.506;2023-06-14T01:50:52;7.80;92.70
34873;DHT22;21084;51.098;14.506;2023-06-14T01:53:20;7.80;92.70
34873;DHT22;21084;51.098;14.506;2023-06-14T01:55:51;7.70;92.70
34873;DHT22;21084;51.098;14.506;2023-06-14T01:58:21;7.70;92.80
34873;DHT22;21084;51.098;14.506;2023-06-14T02:00:51;7.70;92.70
34873;DHT22;21084;51.098;14.506;2023-06-14T02:03:22;7.70;92.70
34873;DHT22;21084;51.098;14.506;2023-06-14T02:05:52;7.70;92.70
34873;DHT22;21084;51.098;14.506;2023-06-14T02:08:21;7.70;92.70
34873;DHT22;21084;51.098;14.506;2023-06-14T02:10:52;7.70;92.70
34873;DHT22;21084;51.098;14.506;2023-06-14T02:13:21;7.70;92.60
34873;DHT22;21084;51.098;14.506;2023-06-14T02:15:49;7.60;92.70
34873;DHT22;21084;51.098;14.506;2023-06-14T02:18:22;7.60;93.00
34873;DHT22;21084;51.098;14.506;2023-06-14T02:20:51;7.60;92.70
34873;DHT22;21084;51.098;14.506;2023-06-14T02:23:19;7.60;92.70
34873;DHT22;21084;51.098;14.506;2023-06-14T02:25:48;7.60;92.80
34873;DHT22;21084;51.098;14.506;2023-06-14T02:28:18;7.60;92.90
34873;DHT22;21084;51.098;14.506;2023-06-14T02:30:46;7.70;93.00
34873;DHT22;21084;51.098;14.506;2023-06-14T02:33:14;7.70;93.20
34873;DHT22;21084;51.098;14.506;2023-06-14T02:35:44;7.70;93.20
34873;DHT22;21084;51.098;14.506;2023-06-14T02:38:13;7.80;93.30
34873;DHT22;21084;51.098;14.506;2023-06-14T02:40:42;7.80;93.30
34873;DHT22;21084;51.098;14.506;2023-06-14T02:43:10;7.80;93.30
34873;DHT22;21084;51.098;14.506;2023-06-14T02:45:40;7.80;93.40
34873;DHT22;21084;51.098;14.506;2023-06-14T02:48:08;7.80;93.30
34873;DHT22;21084;51.098;14.506;2023-06-14T02:50:38;7.90;93.40
34873;DHT22;21084;51.098;14.506;2023-06-14T02:53:07;7.90;93.40
34873;DHT22;21084;51.098;14.506;2023-06-14T02:55:36;7.90;93.40
34873;DHT22;21084;51.098;14.506;2023-06-14T02:58:07;8.00;93.50
34873;DHT22;21084;51.098;14.506;2023-06-14T03:00:35;8.00;93.60
34873;DHT22;21084;51.098;14.506;2023-06-14T03:03:06;8.10;93.60
34873;DHT22;21084;51.098;14.506;2023-06-14T03:05:43;8.10;93.60
34873;DHT22;21084;51.098;14.506;2023-06-14T03:08:13;8.20;93.80
34873;DHT22;21084;51.098;14.506;2023-06-14T03:10:44;8.20;93.70
34873;DHT22;21084;51.098;14.506;2023-06-14T03:13:12;8.10;93.10
34873;DHT22;21084;51.098;14.506;2023-06-14T03:15:41;8.10;93.30
34873;DHT22;21084;51.098;14.506;2023-06-14T03:18:11;8.10;93.40
34873;DHT22;21084;51.098;14.506;2023-06-14T03:20:40;8.00;93.10
34873;DHT22;21084;51.098;14.506;2023-06-14T03:23:09;8.00;93.10
34873;DHT22;21084;51.098;14.506;2023-06-14T03:25:38;7.90;93.50
34873;DHT22;21084;51.098;14.506;2023-06-14T03:28:09;7.90;93.40
34873;DHT22;21084;51.098;14.506;2023-06-14T03:30:37;7.90;93.60
34873;DHT22;21084;51.098;14.506;2023-06-14T03:33:06;8.00;93.60
34873;DHT22;21084;51.098;14.506;2023-06-14T03:35:37;7.90;93.50
34873;DHT22;21084;51.098;14.506;2023-06-14T03:38:05;7.90;93.70
34873;DHT22;21084;51.098;14.506;2023-06-14T03:40:34;7.90;93.70
34873;DHT22;21084;51.098;14.506;2023-06-14T03:43:02;7.80;93.90
34873;DHT22;21084;51.098;14.506;2023-06-14T03:45:31;7.80;93.90
34873;DHT22;21084;51.098;14.506;2023-06-14T03:47:59;7.90;94.10
34873;DHT22;21084;51.098;14.506;2023-06-14T03:50:28;7.90;93.90
34873;DHT22;21084;51.098;14.506;2023-06-14T03:52:58;8.00;94.00
34873;DHT22;21084;51.098;14.506;2023-06-14T03:55:28;8.00;93.90
34873;DHT22;21084;51.098;14.506;2023-06-14T03:58:01;8.10;93.80
34873;DHT22;21084;51.098;14.506;2023-06-14T04:00:29;8.10;93.60
34873;DHT22;21084;51.098;14.506;2023-06-14T04:02:59;8.20;93.60
34873;DHT22;21084;51.098;14.506;2023-06-14T04:05:28;8.30;93.60
34873;DHT22;21084;51.098;14.506;2023-06-14T04:07:58;8.30;93.60
34873;DHT22;21084;51.098;14.506;2023-06-14T04:10:28;8.50;93.50
34873;DHT22;21084;51.098;14.506;2023-06-14T04:12:56;8.50;93.40
34873;DHT22;21084;51.098;14.506;2023-06-14T04:15:25;8.70;93.30
34873;DHT22;21084;51.098;14.506;2023-06-14T04:17:55;8.80;93.50
34873;DHT22;21084;51.098;14.506;2023-06-14T04:20:24;9.10;93.70
34873;DHT22;21084;51.098;14.506;2023-06-14T04:22:53;9.30;93.50
34873;DHT22;21084;51.098;14.506;2023-06-14T04:25:25;9.40;92.60
34873;DHT22;21084;51.098;14.506;2023-06-14T04:27:57;9.50;92.60
34873;DHT22;21084;51.098;14.506;2023-06-14T04:30:27;9.60;91.80
34873;DHT22;21084;51.098;14.506;2023-06-14T04:32:58;9.80;93.10
34873;DHT22;21084;51.098;14.506;2023-06-14T04:35:27;10.00;92.30
34873;DHT22;21084;51.098;14.506;2023-06-14T04:37:56;10.20;92.20
34873;DHT22;21084;51.098;14.506;2023-06-14T04:40:26;10.50;92.50
34873;DHT22;21084;51.098;14.506;2023-06-14T04:42:54;10.70;92.60
34873;DHT22;21084;51.098;14.506;2023-06-14T04:45:22;10.80;92.00
34873;DHT22;21084;51.098;14.506;2023-06-14T04:47:51;10.90;91.60
34873;DHT22;21084;51.098;14.506;2023-06-14T04:50:24;10.90;91.40
34873;DHT22;21084;51.098;14.506;2023-06-14T04:52:53;11.00;91.40
34873;DHT22;21084;51.098;14.506;2023-06-14T04:55:22;11.10;91.30
34873;DHT22;21084;51.098;14.506;2023-06-14T04:57:53;11.40;91.80
34873;DHT22;21084;51.098;14.506;2023-06-14T05:00:21;11.80;91.90
34873;DHT22;21084;51.098;14.506;2023-06-14T05:02:50;12.10;91.90
34873;DHT22;21084;51.098;14.506;2023-06-14T05:05:20;12.20;88.10
34873;DHT22;21084;51.098;14.506;2023-06-14T05:07:49;12.60;90.00
34873;DHT22;21084;51.098;14.506;2023-06-14T05:10:18;12.70;89.50
34873;DHT22;21084;51.098;14.506;2023-06-14T05:12:46;13.10;90.10
34873;DHT22;21084;51.098;14.506;2023-06-14T05:15:17;13.30;87.70
34873;DHT22;21084;51.098;14.506;2023-06-14T05:17:46;13.60;86.60
34873;DHT22;21084;51.098;14.506;2023-06-14T05:20:20;13.80;87.10
34873;DHT22;21084;51.098;14.506;2023-06-14T05:22:50;14.00;85.30
34873;DHT22;21084;51.098;14.506;2023-06-14T05:25:19;14.10;84.30
34873;DHT22;21084;51.098;14.506;2023-06-14T05:27:48;14.30;84.90
34873;DHT22;21084;51.098;14.506;2023-06-14T05:30:18;14.30;83.50
34873;DHT22;21084;51.098;14.506;2023-06-14T05:32:46;14.40;82.70
34873;DHT22;21084;51.098;14.506;2023-06-14T05:35:15;14.50;82.60
34873;DHT22;21084;51.098;14.506;2023-06-14T05:37:44;14.80;82.00
34873;DHT22;21084;51.098;14.506;2023-06-14T05:40:13;15.10;83.20
34873;DHT22;21084;51.098;14.506;2023-06-14T05:42:41;15.10;80.00
34873;DHT22;21084;51.098;14.506;2023-06-14T05:45:10;15.30;80.00
34873;DHT22;21084;51.098;14.506;2023-06-14T05:47:40;15.50;79.90
34873;DHT22;21084;51.098;14.506;2023-06-14T05:50:09;15.70;79.20
34873;DHT22;21084;51.098;14.506;2023-06-14T05:52:37;16.00;79.40
34873;DHT22;21084;51.098;14.506;2023-06-14T05:55:06;15.80;75.70
34873;DHT22;21084;51.098;14.506;2023-06-14T05:57:35;15.80;76.30
34873;DHT22;21084;51.098;14.506;2023-06-14T06:00:05;15.70;75.80
34873;DHT22;21084;51.098;14.506;2023-06-14T06:02:39;16.00;78.20
34873;DHT22;21084;51.098;14.506;2023-06-14T06:05:09;16.50;78.60
34873;DHT22;21084;51.098;14.506;2023-06-14T06:07:39;16.80;74.70
34873;DHT22;21084;51.098;14.506;2023-06-14T06:10:09;17.20;74.70
34873;DHT22;21084;51.098;14.506;2023-06-14T06:12:37;17.50;74.30
34873;DHT22;21084;51.098;14.506;2023-06-14T06:15:06;17.70;74.00
34873;DHT22;21084;51.098;14.506;2023-06-14T06:17:41;18.00;73.10
34873;DHT22;21084;51.098;14.506;2023-06-14T06:20:23;18.50;70.20
34873;DHT22;21084;51.098;14.506;2023-06-14T06:22:56;19.00;70.00
34873;DHT22;21084;51.098;14.506;2023-06-14T06:25:25;19.20;68.30
34873;DHT22;21084;51.098;14.506;2023-06-14T06:27:54;19.60;67.00
34873;DHT22;21084;51.098;14.506;2023-06-14T06:30:24;19.60;65.00
34873;DHT22;21084;51.098;14.506;2023-06-14T06:32:54;19.30;64.30
34873;DHT22;21084;51.098;14.506;2023-06-14T06:35:24;19.30;65.70
34873;DHT22;21084;51.098;14.506;2023-06-14T06:37:52;19.80;64.30
34873;DHT22;21084;51.098;14.506;2023-06-14T06:40:22;20.20;63.70
34873;DHT22;21084;51.098;14.506;2023-06-14T06:42:51;20.00;64.50
34873;DHT22;21084;51.098;14.506;2023-06-14T06:45:20;19.20;66.20
34873;DHT22;21084;51.098;14.506;2023-06-14T06:47:52;19.30;66.20
34873;DHT22;21084;51.098;14.506;2023-06-14T06:50:22;19.60;67.90
34873;DHT22;21084;51.098;14.506;2023-06-14T06:52:52;19.80;67.00
34873;DHT22;21084;51.098;14.506;2023-06-14T06:55:21;20.60;63.80
34873;DHT22;21084;51.098;14.506;2023-06-14T06:57:50;20.90;62.40
34873;DHT22;21084;51.098;14.506;2023-06-14T07:00:20;21.10;59.90
34873;DHT22;21084;51.098;14.506;2023-06-14T07:02:49;21.40;57.00
34873;DHT22;21084;51.098;14.506;2023-06-14T07:05:18;22.00;58.80
34873;DHT22;21084;51.098;14.506;2023-06-14T07:07:49;22.20;54.60
34873;DHT22;21084;51.098;14.506;2023-06-14T07:10:18;22.70;54.80
34873;DHT22;21084;51.098;14.506;2023-06-14T07:12:47;22.80;53.20
34873;DHT22;21084;51.098;14.506;2023-06-14T07:15:16;23.30;54.20
34873;DHT22;21084;51.098;14.506;2023-06-14T07:17:45;22.80;50.70
34873;DHT22;21084;51.098;14.506;2023-06-14T07:20:14;22.90;51.90
34873;DHT22;21084;51.098;14.506;2023-06-14T07:22:43;23.20;51.70
34873;DHT22;21084;51.098;14.506;2023-06-14T07:25:14;23.00;51.30
34873;DHT22;21084;51.098;14.506;2023-06-14T07:27:44;22.50;51.80
34873;DHT22;21084;51.098;14.506;2023-06-14T07:30:13;22.40;51.00
34873;DHT22;21084;51.098;14.506;2023-06-14T07:32:42;21.70;51.40
34873;DHT22;21084;51.098;14.506;2023-06-14T07:35:11;21.50;52.40
34873;DHT22;21084;51.098;14.506;2023-06-14T07:37:40;21.30;54.60
34873;DHT22;21084;51.098;14.506;2023-06-14T07:40:10;20.80;52.80
34873;DHT22;21084;51.098;14.506;2023-06-14T07:42:40;20.60;53.60
34873;DHT22;21084;51.098;14.506;2023-06-14T07:45:09;20.70;55.90
34873;DHT22;21084;51.098;14.506;2023-06-14T07:47:38;21.00;56.90
34873;DHT22;21084;51.098;14.506;2023-06-14T07:50:07;21.40;57.10
34873;DHT22;21084;51.098;14.506;2023-06-14T07:52:36;21.60;56.70
34873;DHT22;21084;51.098;14.506;2023-06-14T07:55:06;22.10;55.60
34873;DHT22;21084;51.098;14.506;2023-06-14T07:57:35;22.80;55.10
34873;DHT22;21084;51.098;14.506;2023-06-14T08:00:07;23.50;50.20
34873;DHT22;21084;51.098;14.506;2023-06-14T08:02:37;24.20;49.10
34873;DHT22;21084;51.098;14.506;2023-06-14T08:05:07;24.30;47.30
34873;DHT22;21084;51.098;14.506;2023-06-14T08:07:36;24.00;47.80
34873;DHT22;21084;51.098;14.506;2023-06-14T08:10:05;23.60;48.50
34873;DHT22;21084;51.098;14.506;2023-06-14T08:12:34;24.00;48.40
34873;DHT22;21084;51.098;14.506;2023-06-14T08:15:05;24.00;48.30
34873;DHT22;21084;51.098;14.506;2023-06-14T08:17:42;23.30;44.70
34873;DHT22;21084;51.098;14.506;2023-06-14T08:20:12;22.70;48.90
34873;DHT22;21084;51.098;14.506;2023-06-14T08:22:43;22.90;49.00
34873;DHT22;21084;51.098;14.506;2023-06-14T08:25:13;23.00;49.60
34873;DHT22;21084;51.098;14.506;2023-06-14T08:27:43;22.90;48.60
34873;DHT22;21084;51.098;14.506;2023-06-14T08:30:13;22.60;47.90
34873;DHT22;21084;51.098;14.506;2023-06-14T08:32:44;22.20;49.90
34873;DHT22;21084;51.098;14.506;2023-06-14T08:35:18;22.20;48.90
34873;DHT22;21084;51.098;14.506;2023-06-14T08:37:47;22.50;49.00
34873;DHT22;21084;51.098;14.506;2023-06-14T08:40:19;22.60;48.40
34873;DHT22;21084;51.098;14.506;2023-06-14T08:42:51;22.70;47.90
34873;DHT22;21084;51.098;14.506;2023-06-14T08:45:22;22.50;47.00
34873;DHT22;21084;51.098;14.506;2023-06-14T08:47:55;22.50;47.40
34873;DHT22;21084;51.098;14.506;2023-06-14T08:50:28;22.60;47.30
34873;DHT22;21084;51.098;14.506;2023-06-14T08:53:03;22.70;47.20
34873;DHT22;21084;51.098;14.506;2023-06-14T08:55:31;23.30;46.70
34873;DHT22;21084;51.098;14.506;2023-06-14T08:58:04;24.00;45.10
34873;DHT22;21084;51.098;14.506;2023-06-14T09:00:34;24.50;42.80
34873;DHT22;21084;51.098;14.506;2023-06-14T09:03:05;25.50;44.20
34873;DHT22;21084;51.098;14.506;2023-06-14T09:05:40;26.60;42.40
34873;DHT22;21084;51.098;14.506;2023-06-14T09:08:09;26.00;40.00
34873;DHT22;21084;51.098;14.506;2023-06-14T09:10:40;26.10;40.60
34873;DHT22;21084;51.098;14.506;2023-06-14T09:13:09;26.70;40.80
34873;DHT22;21084;51.098;14.506;2023-06-14T09:15:39;26.50;39.80
34873;DHT22;21084;51.098;14.506;2023-06-14T09:18:09;26.00;38.80
34873;DHT22;21084;51.098;14.506;2023-06-14T09:20:38;25.20;39.80
34873;DHT22;21084;51.098;14.506;2023-06-14T09:23:07;24.60;41.40
34873;DHT22;21084;51.098;14.506;2023-06-14T09:25:42;24.50;42.30
34873;DHT22;21084;51.098;14.506;2023-06-14T09:28:12;25.50;43.10
34873;DHT22;21084;51.098;14.506;2023-06-14T09:30:42;26.40;41.40
34873;DHT22;21084;51.098;14.506;2023-06-14T09:33:16;27.20;40.30
34873;DHT22;21084;51.098;14.506;2023-06-14T09:35:46;28.20;38.50
34873;DHT22;21084;51.098;14.506;2023-06-14T09:38:15;27.30;38.50
34873;DHT22;21084;51.098;14.506;2023-06-14T09:40:43;28.10;37.30
34873;DHT22;21084;51.098;14.506;2023-06-14T09:43:12;28.90;37.10
34873;DHT22;21084;51.098;14.506;2023-06-14T09:45:43;28.40;35.80
34873;DHT22;21084;51.098;14.506;2023-06-14T09:48:14;28.30;37.90
34873;DHT22;21084;51.098;14.506;2023-06-14T09:50:46;28.70;36.30
34873;DHT22;21084;51.098;14.506;2023-06-14T09:53:21;28.90;35.00
34873;DHT22;21084;51.098;14.506;2023-06-14T09:55:52;27.40;36.50
34873;DHT22;21084;51.098;14.506;2023-06-14T09:58:26;26.50;38.10
34873;DHT22;21084;51.098;14.506;2023-06-14T10:00:59;26.20;39.70
34873;DHT22;21084;51.098;14.506;2023-06-14T10:03:29;26.00;39.90
34873;DHT22;21084;51.098;14.506;2023-06-14T10:06:16;25.70;41.20
34873;DHT22;21084;51.098;14.506;2023-06-14T10:08:46;25.90;41.30
34873;DHT22;21084;51.098;14.506;2023-06-14T10:11:17;25.90;41.10
34873;DHT22;21084;51.098;14.506;2023-06-14T10:13:46;25.50;41.80
34873;DHT22;21084;51.098;14.506;2023-06-14T10:16:20;25.20;42.10
34873;DHT22;21084;51.098;14.506;2023-06-14T10:18:53;25.20;43.00
34873;DHT22;21084;51.098;14.506;2023-06-14T10:21:36;25.50;43.20
34873;DHT22;21084;51.098;14.506;2023-06-14T10:24:08;25.60;41.60
34873;DHT22;21084;51.098;14.506;2023-06-14T10:26:50;26.10;41.90
34873;DHT22;21084;51.098;14.506;2023-06-14T10:29:19;26.60;41.60
34873;DHT22;21084;51.098;14.506;2023-06-14T10:31:50;27.10;41.40
34873;DHT22;21084;51.098;14.506;2023-06-14T10:34:23;27.80;39.90
34873;DHT22;21084;51.098;14.506;2023-06-14T10:37:01;28.60;39.30
34873;DHT22;21084;51.098;14.506;2023-06-14T10:39:32;28.20;38.00
34873;DHT22;21084;51.098;14.506;2023-06-14T10:42:02;27.40;39.60
34873;DHT22;21084;51.098;14.506;2023-06-14T10:44:37;26.60;40.30
34873;DHT22;21084;51.098;14.506;2023-06-14T10:47:10;26.00;42.10
34873;DHT22;21084;51.098;14.506;2023-06-14T10:49:41;25.70;42.20
34873;DHT22;21084;51.098;14.506;2023-06-14T10:52:11;25.70;42.50
34873;DHT22;21084;51.098;14.506;2023-06-14T10:55:05;25.80;42.80
34873;DHT22;21084;51.098;14.506;2023-06-14T10:57:37;26.00;42.10
34873;DHT22;21084;51.098;14.506;2023-06-14T11:00:19;26.00;43.00
34873;DHT22;21084;51.098;14.506;2023-06-14T11:03:28;25.90;41.70
34873;DHT22;21084;51.098;14.506;2023-06-14T11:06:12;26.00;42.40
34873;DHT22;21084;51.098;14.506;2023-06-14T11:09:11;26.40;41.60
34873;DHT22;21084;51.098;14.506;2023-06-14T11:11:48;26.20;42.00
34873;DHT22;21084;51.098;14.506;2023-06-14T11:14:17;26.20;41.50
34873;DHT22;21084;51.098;14.506;2023-06-14T11:16:48;26.40;42.00
34873;DHT22;21084;51.098;14.506;2023-06-14T11:19:19;27.10;41.00
34873;DHT22;21084;51.098;14.506;2023-06-14T11:21:48;27.90;38.50
34873;DHT22;21084;51.098;14.506;2023-06-14T11:24:17;27.40;39.70
34873;DHT22;21084;51.098;14.506;2023-06-14T11:26:47;28.00;39.10
34873;DHT22;21084;51.098;14.506;2023-06-14T11:29:16;29.40;38.30
34873;DHT22;21084;51.098;14.506;2023-06-14T11:31:45;30.30;34.20
34873;DHT22;21084;51.098;14.506;2023-06-14T11:34:14;31.50;35.00
34873;DHT22;21084;51.098;14.506;2023-06-14T11:36:45;30.70;32.40
34873;DHT22;21084;51.098;14.506;2023-06-14T11:39:14;30.00;34.10
34873;DHT22;21084;51.098;14.506;2023-06-14T11:41:45;30.80;32.80
34873;DHT22;21084;51.098;14.506;2023-06-14T11:44:13;29.80;33.90
34873;DHT22;21084;51.098;14.506;2023-06-14T11:46:42;29.70;34.20
34873;DHT22;21084;51.098;14.506;2023-06-14T11:49:11;30.60;34.60
34873;DHT22;21084;51.098;14.506;2023-06-14T11:51:42;30.80;31.50
34873;DHT22;21084;51.098;14.506;2023-06-14T11:54:13;30.50;31.80
34873;DHT22;21084;51.098;14.506;2023-06-14T11:56:42;31.60;32.30
34873;DHT22;21084;51.098;14.506;2023-06-14T11:59:13;32.10;31.80
34873;DHT22;21084;51.098;14.506;2023-06-14T12:01:43;32.30;30.60
34873;DHT22;21084;51.098;14.506;2023-06-14T12:04:12;32.60;29.40
34873;DHT22;21084;51.098;14.506;2023-06-14T12:06:41;32.70;29.70
34873;DHT22;21084;51.098;14.506;2023-06-14T12:09:10;32.60;29.70
34873;DHT22;21084;51.098;14.506;2023-06-14T12:11:45;32.70;30.00
34873;DHT22;21084;51.098;14.506;2023-06-14T12:14:14;31.50;31.40
34873;DHT22;21084;51.098;14.506;2023-06-14T12:16:43;30.40;32.10
34873;DHT22;21084;51.098;14.506;2023-06-14T12:19:14;29.20;34.30
34873;DHT22;21084;51.098;14.506;2023-06-14T12:21:43;28.40;36.50
34873;DHT22;21084;51.098;14.506;2023-06-14T12:24:15;27.30;38.30
34873;DHT22;21084;51.098;14.506;2023-06-14T12:26:45;25.30;41.20
34873;DHT22;21084;51.098;14.506;2023-06-14T12:29:14;24.10;44.70
34873;DHT22;21084;51.098;14.506;2023-06-14T12:31:43;23.70;46.50
34873;DHT22;21084;51.098;14.506;2023-06-14T12:34:12;23.70;46.70
34873;DHT22;21084;51.098;14.506;2023-06-14T12:36:40;23.60;47.10
34873;DHT22;21084;51.098;14.506;2023-06-14T12:39:12;23.70;47.20
34873;DHT22;21084;51.098;14.506;2023-06-14T12:41:41;23.80;47.40
34873;DHT22;21084;51.098;14.506;2023-06-14T12:44:11;24.00;46.80
34873;DHT22;21084;51.098;14.506;2023-06-14T12:46:41;24.20;47.10
34873;DHT22;21084;51.098;14.506;2023-06-14T12:49:11;24.20;47.10
34873;DHT22;21084;51.098;14.506;2023-06-14T12:51:40;24.40;46.90
34873;DHT22;21084;51.098;14.506;2023-06-14T12:54:09;24.20;47.30
34873;DHT22;21084;51.098;14.506;2023-06-14T12:56:39;25.00;45.60
34873;DHT22;21084;51.098;14.506;2023-06-14T12:59:10;24.90;45.70
34873;DHT22;21084;51.098;14.506;2023-06-14T13:01:39;24.70;45.30
34873;DHT22;21084;51.098;14.506;2023-06-14T13:04:08;24.60;46.70
34873;DHT22;21084;51.098;14.506;2023-06-14T13:06:37;24.60;46.30
34873;DHT22;21084;51.098;14.506;2023-06-14T13:09:06;24.50;45.30
34873;DHT22;21084;51.098;14.506;2023-06-14T13:11:36;24.70;44.70
34873;DHT22;21084;51.098;14.506;2023-06-14T13:14:05;24.70;42.80
34873;DHT22;21084;51.098;14.506;2023-06-14T13:16:53;25.70;41.90
34873;DHT22;21084;51.098;14.506;2023-06-14T13:19:22;26.00;41.00
34873;DHT22;21084;51.098;14.506;2023-06-14T13:21:51;25.60;39.60
34873;DHT22;21084;51.098;14.506;2023-06-14T13:24:20;25.40;41.90
34873;DHT22;21084;51.098;14.506;2023-06-14T13:26:49;25.40;42.30
34873;DHT22;21084;51.098;14.506;2023-06-14T13:29:18;24.70;43.40
34873;DHT22;21084;51.098;14.506;2023-06-14T13:31:46;24.60;44.50
34873;DHT22;21084;51.098;14.506;2023-06-14T13:34:16;24.70;43.90
34873;DHT22;21084;51.098;14.506;2023-06-14T13:36:45;24.70;43.90
34873;DHT22;21084;51.098;14.506;2023-06-14T13:39:14;24.70;43.50
34873;DHT22;21084;51.098;14.506;2023-06-14T13:41:43;24.70;44.00
34873;DHT22;21084;51.098;14.506;2023-06-14T13:44:12;24.40;42.80
34873;DHT22;21084;51.098;14.506;2023-06-14T13:46:44;24.00;44.10
34873;DHT22;21084;51.098;14.506;2023-06-14T13:49:12;24.00;44.40
34873;DHT22;21084;51.098;14.506;2023-06-14T13:51:43;23.70;42.10
34873;DHT22;21084;51.098;14.506;2023-06-14T13:54:13;23.00;42.20
34873;DHT22;21084;51.098;14.506;2023-06-14T13:56:42;22.80;44.70
34873;DHT22;21084;51.098;14.506;2023-06-14T13:59:11;22.90;44.30
34873;DHT22;21084;51.098;14.506;2023-06-14T14:01:39;22.80;43.50
34873;DHT22;21084;51.098;14.506;2023-06-14T14:04:08;22.70;43.60
34873;DHT22;21084;51.098;14.506;2023-06-14T14:06:37;23.30;44.50
34873;DHT22;21084;51.098;14.506;2023-06-14T14:09:07;24.10;43.10
34873;DHT22;21084;51.098;14.506;2023-06-14T14:11:36;25.00;42.60
34873;DHT22;21084;51.098;14.506;2023-06-14T14:14:05;26.20;42.40
34873;DHT22;21084;51.098;14.506;2023-06-14T14:16:34;27.00;39.30
34873;DHT22;21084;51.098;14.506;2023-06-14T14:19:03;28.10;37.30
34873;DHT22;21084;51.098;14.506;2023-06-14T14:21:33;29.10;36.10
34873;DHT22;21084;51.098;14.506;2023-06-14T14:24:02;29.70;34.00
34873;DHT22;21084;51.098;14.506;2023-06-14T14:26:33;29.90;33.70
34873;DHT22;21084;51.098;14.506;2023-06-14T14:29:01;30.80;32.80
34873;DHT22;21084;51.098;14.506;2023-06-14T14:31:31;30.50;31.90
34873;DHT22;21084;51.098;14.506;2023-06-14T14:33:59;30.60;31.30
34873;DHT22;21084;51.098;14.506;2023-06-14T14:36:28;30.10;33.10
34873;DHT22;21084;51.098;14.506;2023-06-14T14:38:57;30.40;31.00
34873;DHT22;21084;51.098;14.506;2023-06-14T14:41:27;31.50;30.80
34873;DHT22;21084;51.098;14.506;2023-06-14T14:43:57;30.90;30.60
34873;DHT22;21084;51.098;14.506;2023-06-14T14:46:27;31.20;30.10
34873;DHT22;21084;51.098;14.506;2023-06-14T14:48:56;29.60;31.40
34873;DHT22;21084;51.098;14.506;2023-06-14T14:51:27;28.60;32.20
34873;DHT22;21084;51.098;14.506;2023-06-14T14:53:56;27.60;33.70
34873;DHT22;21084;51.098;14.506;2023-06-14T14:56:24;26.50;35.00
34873;DHT22;21084;51.098;14.506;2023-06-14T14:58:54;26.10;36.80
34873;DHT22;21084;51.098;14.506;2023-06-14T15:01:24;26.80;36.60
34873;DHT22;21084;51.098;14.506;2023-06-14T15:03:53;27.30;35.50
34873;DHT22;21084;51.098;14.506;2023-06-14T15:06:26;27.80;36.00
34873;DHT22;21084;51.098;14.506;2023-06-14T15:08:55;29.00;33.70
34873;DHT22;21084;51.098;14.506;2023-06-14T15:11:24;29.00;31.70
34873;DHT22;21084;51.098;14.506;2023-06-14T15:13:52;29.10;31.80
34873;DHT22;21084;51.098;14.506;2023-06-14T15:16:23;29.30;32.90
34873;DHT22;21084;51.098;14.506;2023-06-14T15:18:52;29.80;31.20
34873;DHT22;21084;51.098;14.506;2023-06-14T15:21:21;30.10;30.80
34873;DHT22;21084;51.098;14.506;2023-06-14T15:23:49;29.80;29.70
34873;DHT22;21084;51.098;14.506;2023-06-14T15:26:20;30.30;29.30
34873;DHT22;21084;51.098;14.506;2023-06-14T15:28:51;30.00;29.10
34873;DHT22;21084;51.098;14.506;2023-06-14T15:31:20;28.70;29.60
34873;DHT22;21084;51.098;14.506;2023-06-14T15:33:52;28.70;30.50
34873;DHT22;21084;51.098;14.506;2023-06-14T15:36:21;28.20;31.40
34873;DHT22;21084;51.098;14.506;2023-06-14T15:38:50;28.60;31.80